Search for airport 
image banner adimage banner adimage banner ad
image banner ad

3PA2 - Philadelphia

Located in Hilltown, United States

ICAO - 3PA2, IATA -

Data provided by Airmate  

General information

Coordinates: N40°19'52" W75°14'53"
Elevation is 670 feet MSL.
Magnetic variation is -12° East
View others Airports in Pennsylvania

Operational data

Special qualification required
Current time UTC:
Current local time:
Weather at : KCKZ - Pennridge ( 7 km )
METAR: KCKZ 182355Z AUTO 23003KT 10SM CLR 22/07 A3027 RMK AO2
View NOTAMs / SUP AIP / TFR affecting this airport [VIEW]
Communications frequencies: [VIEW]

Runways:

RWY identifierQFULength (ft)Width (ft)SurfaceLDA (ft)
011716300GRASS
191716300GRASS
061792300GRASS
241792300GRASS
082350300GRASS
262350300GRASS
131400300GRASS
311400300GRASS

Airport contact information

Address: Hilltown United States

Satellite view of 3PA2